createdAt,value
2023-05-02T00:02:52.750Z,53.7
2023-05-02T00:18:02.797Z,53.9
2023-05-02T00:33:12.968Z,54
2023-05-02T00:48:22.681Z,54.2
2023-05-02T01:03:33.114Z,54.3
2023-05-02T01:18:42.805Z,54.5
2023-05-02T01:33:52.526Z,54.2
2023-05-02T01:49:01.763Z,54.8
2023-05-02T02:04:11.477Z,55.3
2023-05-02T02:19:21.426Z,55.4
2023-05-02T02:34:31.296Z,55.6
2023-05-02T02:49:40.851Z,55.8
2023-05-02T03:04:49.543Z,56.1
2023-05-02T03:20:00.217Z,56.2
2023-05-02T03:35:09.780Z,56.4
2023-05-02T03:50:20.133Z,56.6
2023-05-02T04:05:30.179Z,56.9
2023-05-02T04:20:39.993Z,57.3
2023-05-02T04:35:49.651Z,57.6
2023-05-02T04:50:58.857Z,57.9
2023-05-02T05:06:08.639Z,58.5
2023-05-02T05:21:19.824Z,59
2023-05-02T05:36:29.331Z,59.3
2023-05-02T05:51:38.982Z,59.5
2023-05-02T06:06:48.917Z,59.4
2023-05-02T06:21:58.671Z,59.5
2023-05-02T06:37:09.565Z,59.5
2023-05-02T06:52:19.216Z,59.3
2023-05-02T07:07:28.951Z,59.1
2023-05-02T07:22:38.385Z,58.9
2023-05-02T07:37:48.999Z,58.7
2023-05-02T07:52:58.674Z,58.6
2023-05-02T08:08:08.350Z,58.4
2023-05-02T08:23:20.453Z,58.5
2023-05-02T08:38:30.198Z,58.4
2023-05-02T08:53:39.485Z,58.5
2023-05-02T09:08:48.911Z,58.5
2023-05-02T09:23:58.683Z,57.9
2023-05-02T09:39:09.092Z,57.6
2023-05-02T09:54:19.643Z,57.3
2023-05-02T10:09:29.972Z,57
2023-05-02T10:25:49.837Z,55.1
2023-05-02T10:41:00.393Z,56
2023-05-02T10:56:10.336Z,55.3
2023-05-02T11:11:19.976Z,55.4
2023-05-02T11:26:30.002Z,55.2
2023-05-02T11:41:39.631Z,54.9
2023-05-02T11:56:49.446Z,54.5
2023-05-02T12:11:59.216Z,47.8
2023-05-02T12:27:09.687Z,53.3
2023-05-02T12:42:20.683Z,52.9
2023-05-02T12:57:30.821Z,51.9
2023-05-02T13:12:39.979Z,53.2
2023-05-02T13:27:49.208Z,53.9
2023-05-02T13:42:58.979Z,53.5
2023-05-02T13:58:08.585Z,53.5
2023-05-02T14:13:20.669Z,53.8
2023-05-02T14:28:30.080Z,53.4
2023-05-02T14:43:39.943Z,53.7
2023-05-02T14:58:49.177Z,53.8
2023-05-02T15:14:00.302Z,53.8
2023-05-02T15:29:09.983Z,54.8
2023-05-02T15:44:20.474Z,54.1
2023-05-02T15:59:30.562Z,54.2
2023-05-02T16:14:39.922Z,54.2
2023-05-02T16:29:49.758Z,54.2
2023-05-02T16:44:59.024Z,54.4
2023-05-02T17:00:08.708Z,54.4
2023-05-02T17:15:18.559Z,54.3
2023-05-02T17:30:28.591Z,54.5
2023-05-02T17:45:38.243Z,54.6
2023-05-02T18:00:48.019Z,54.7
2023-05-02T18:15:57.496Z,54.8
2023-05-02T18:31:07.111Z,55.3
2023-05-02T18:46:21.424Z,54.8
2023-05-02T19:01:31.298Z,54.7
2023-05-02T19:16:41.225Z,55.3
2023-05-02T19:31:51.302Z,55.4
2023-05-02T19:47:01.706Z,55.6
2023-05-02T20:02:11.819Z,55.8
2023-05-02T20:17:21.441Z,55.9
2023-05-02T20:32:31.673Z,56.2
2023-05-02T20:47:41.717Z,56.2
2023-05-02T21:02:51.577Z,56.3
2023-05-02T21:18:01.055Z,56.4
2023-05-02T21:33:10.755Z,56.5
2023-05-02T21:48:20.538Z,56.6
2023-05-02T22:03:30.440Z,56.8
2023-05-02T22:18:39.994Z,56.9
2023-05-02T22:33:48.855Z,56.9
2023-05-02T22:48:57.471Z,57.2
2023-05-02T23:04:06.700Z,57.3
2023-05-02T23:19:16.292Z,57.4
2023-05-02T23:34:25.451Z,57.2
2023-05-02T23:49:34.737Z,57.5
